createdAt,value
2023-04-08T00:00:56.585Z,100474.69
2023-04-08T00:02:28.599Z,100473.84
2023-04-08T00:04:01.048Z,100475.56
2023-04-08T00:05:33.513Z,100470.13
2023-04-08T00:07:06.154Z,100476.34
2023-04-08T00:08:38.030Z,100467.47
2023-04-08T00:10:10.484Z,100464.72
2023-04-08T00:11:42.824Z,100468.25
2023-04-08T00:13:15.128Z,100469.13
2023-04-08T00:14:46.933Z,100462.84
2023-04-08T00:16:18.734Z,100462.84
2023-04-08T00:17:50.934Z,100469.06
2023-04-08T00:19:22.971Z,100475.16
2023-04-08T00:20:55.089Z,100469.81
2023-04-08T00:22:26.891Z,100474.28
2023-04-08T00:23:58.707Z,100465.34
2023-04-08T00:25:31.569Z,100464.41
2023-04-08T00:27:03.906Z,100460.78
2023-04-08T00:28:35.755Z,100467.00
2023-04-08T00:30:08.132Z,100470.50
2023-04-08T00:31:39.917Z,100466.06
2023-04-08T00:33:11.757Z,100462.44
2023-04-08T00:34:44.259Z,100460.63
2023-04-08T00:36:16.050Z,100463.31
2023-04-08T00:37:48.715Z,100467.69
2023-04-08T00:39:21.230Z,100459.69
2023-04-08T00:40:53.039Z,100469.44
2023-04-08T00:42:24.911Z,100465.81
2023-04-08T00:43:56.714Z,100467.53
2023-04-08T00:45:28.887Z,100468.38
2023-04-08T00:47:00.739Z,100468.38
2023-04-08T00:48:32.692Z,100475.47
2023-04-08T00:50:08.598Z,100471.00
2023-04-08T00:51:41.043Z,100469.13
2023-04-08T00:53:17.464Z,100476.16
2023-04-08T00:54:49.530Z,100473.50
2023-04-08T00:56:24.702Z,100472.53
2023-04-08T00:57:57.755Z,100472.53
2023-04-08T00:59:31.007Z,100468.06
2023-04-08T01:01:44.708Z,100467.38
2023-04-08T01:03:54.986Z,100470.81
2023-04-08T01:05:59.016Z,100473.50
2023-04-08T01:07:49.190Z,100461.88
2023-04-08T01:09:25.502Z,100463.53
2023-04-08T01:11:03.485Z,100458.19
2023-04-08T01:12:42.259Z,100461.72
2023-04-08T01:14:21.848Z,100458.09
2023-04-08T01:15:55.051Z,100457.06
2023-04-08T01:17:27.179Z,100457.06
2023-04-08T01:18:59.471Z,100457.94
2023-04-08T01:20:32.077Z,100460.59
2023-04-08T01:22:16.606Z,100461.56
2023-04-08T01:24:11.653Z,100457.94
2023-04-08T01:25:54.207Z,100452.53
2023-04-08T01:27:28.786Z,100452.38
2023-04-08T01:29:03.163Z,100450.53
2023-04-08T01:30:38.063Z,100455.88
2023-04-08T01:32:11.974Z,100455.78
2023-04-08T01:33:45.192Z,100459.34
2023-04-08T01:35:17.236Z,100454.00
2023-04-08T01:36:50.816Z,100454.00
2023-04-08T01:38:24.768Z,100452.19
2023-04-08T01:39:57.470Z,100445.06
2023-04-08T01:41:30.638Z,100451.25
2023-04-08T01:43:04.924Z,100453.84
2023-04-08T01:44:38.230Z,100444.03
2023-04-08T01:46:12.817Z,100455.56
2023-04-08T01:47:49.906Z,100456.41
2023-04-08T01:49:23.812Z,100455.47
2023-04-08T01:50:57.103Z,100453.75
2023-04-08T01:52:30.541Z,100456.41
2023-04-08T01:54:02.372Z,100458.13
2023-04-08T01:55:35.082Z,100459.00
2023-04-08T01:57:09.116Z,100455.41
2023-04-08T01:58:49.243Z,100458.13
2023-04-08T02:00:27.652Z,100458.94
2023-04-08T02:02:01.969Z,100453.59
2023-04-08T02:03:36.051Z,100459.78
2023-04-08T02:05:08.608Z,100450.91
2023-04-08T02:06:40.559Z,100467.78
2023-04-08T02:08:12.901Z,100460.63
2023-04-08T02:09:44.885Z,100460.63
2023-04-08T02:11:16.758Z,100454.44
2023-04-08T02:12:49.990Z,100454.44
2023-04-08T02:14:21.805Z,100455.41
2023-04-08T02:16:04.705Z,100467.88
2023-04-08T02:17:47.963Z,100462.56
2023-04-08T02:19:52.961Z,100465.28
2023-04-08T02:21:34.498Z,100461.59
2023-04-08T02:23:20.718Z,100465.22
2023-04-08T02:24:53.468Z,100465.06
2023-04-08T02:26:26.765Z,100463.41
2023-04-08T02:28:04.660Z,100466.84
2023-04-08T02:29:37.359Z,100462.44
2023-04-08T02:31:15.943Z,100466.84
2023-04-08T02:32:51.683Z,100461.50
2023-04-08T02:34:25.182Z,100466.84
2023-04-08T02:35:57.576Z,100469.50
2023-04-08T02:37:30.555Z,100464.16
2023-04-08T02:39:03.734Z,100465.06
2023-04-08T02:40:38.466Z,100465.91
2023-04-08T02:42:11.925Z,100466.78
2023-04-08T02:43:43.914Z,100468.47
2023-04-08T02:45:16.190Z,100463.16
2023-04-08T02:46:48.023Z,100468.41
2023-04-08T02:48:19.864Z,100465.81
2023-04-08T02:49:53.501Z,100466.66
2023-04-08T02:51:26.258Z,100472.00
2023-04-08T02:52:58.269Z,100478.25
2023-04-08T02:54:30.085Z,100476.44
2023-04-08T02:56:01.947Z,100476.44
2023-04-08T02:57:38.232Z,100483.47
2023-04-08T02:59:10.057Z,100485.19
2023-04-08T03:00:42.153Z,100482.53
2023-04-08T03:02:14.051Z,100484.34
2023-04-08T03:03:45.977Z,100483.47
2023-04-08T03:05:17.953Z,100481.75
2023-04-08T03:06:49.767Z,100479.94
2023-04-08T03:08:22.313Z,100482.63
2023-04-08T03:09:55.841Z,100485.19
2023-04-08T03:11:27.666Z,100479.84
2023-04-08T03:12:59.473Z,100481.66
2023-04-08T03:14:31.256Z,100484.28
2023-04-08T03:16:03.095Z,100478.03
2023-04-08T03:17:35.008Z,100477.97
2023-04-08T03:19:06.889Z,100474.34
2023-04-08T03:20:38.703Z,100474.44
2023-04-08T03:22:10.543Z,100480.66
2023-04-08T03:23:42.358Z,100472.53
2023-04-08T03:25:14.322Z,100474.34
2023-04-08T03:26:46.165Z,100478.78
2023-04-08T03:28:18.039Z,100477.88
2023-04-08T03:29:50.052Z,100477.81
2023-04-08T03:31:22.162Z,100485.81
2023-04-08T03:32:54.100Z,100484.00
2023-04-08T03:34:26.186Z,100485.72
2023-04-08T03:35:58.110Z,100481.34
2023-04-08T03:37:29.969Z,100483.94
2023-04-08T03:39:03.900Z,100489.19
2023-04-08T03:40:35.725Z,100483.84
2023-04-08T03:42:07.556Z,100484.72
2023-04-08T03:43:39.349Z,100484.72
2023-04-08T03:45:11.372Z,100474.03
2023-04-08T03:46:43.250Z,100479.38
2023-04-08T03:48:15.062Z,100483.75
2023-04-08T03:49:47.033Z,100486.41
2023-04-08T03:51:18.856Z,100485.50
2023-04-08T03:52:50.748Z,100482.81
2023-04-08T03:54:22.674Z,100482.81
2023-04-08T03:55:54.471Z,100484.53
2023-04-08T03:57:26.385Z,100491.59
2023-04-08T03:58:58.292Z,100488.91
2023-04-08T04:00:30.204Z,100488.00
2023-04-08T04:02:02.141Z,100487.16
2023-04-08T04:03:34.486Z,100491.59
2023-04-08T04:05:06.918Z,100489.81
2023-04-08T04:06:38.719Z,100489.81
2023-04-08T04:08:10.673Z,100492.56
2023-04-08T04:09:42.600Z,100489.03
2023-04-08T04:11:14.413Z,100492.56
2023-04-08T04:12:47.739Z,100487.22
2023-04-08T04:14:19.546Z,100490.75
2023-04-08T04:15:51.502Z,100493.41
2023-04-08T04:17:23.369Z,100489.88
2023-04-08T04:18:55.425Z,100488.06
2023-04-08T04:20:29.389Z,100492.56
2023-04-08T04:22:01.274Z,100491.69
2023-04-08T04:23:33.450Z,100494.38
2023-04-08T04:25:05.627Z,100491.75
2023-04-08T04:26:37.652Z,100503.34
2023-04-08T04:28:10.257Z,100504.19
2023-04-08T04:29:42.109Z,100500.66
2023-04-08T04:31:26.576Z,100497.19
2023-04-08T04:32:58.578Z,100505.13
2023-04-08T04:34:30.424Z,100505.13
2023-04-08T04:36:02.336Z,100501.59
2023-04-08T04:37:34.316Z,100502.44
2023-04-08T04:39:06.282Z,100502.44
2023-04-08T04:40:39.273Z,100503.34
2023-04-08T04:42:11.338Z,100506.91
2023-04-08T04:43:43.971Z,100504.19
2023-04-08T04:45:15.867Z,100512.19
2023-04-08T04:46:47.776Z,100508.75
2023-04-08T04:48:19.579Z,100518.47
2023-04-08T04:49:51.747Z,100507.72
2023-04-08T04:51:23.540Z,100513.06
2023-04-08T04:52:55.441Z,100513.06
2023-04-08T04:54:27.289Z,100512.97
2023-04-08T04:56:01.443Z,100522.72
2023-04-08T04:57:33.238Z,100519.19
2023-04-08T04:59:05.745Z,100520.06
2023-04-08T05:00:37.538Z,100527.19
2023-04-08T05:02:09.529Z,100528.06
2023-04-08T05:03:41.437Z,100525.38
2023-04-08T05:05:13.324Z,100528.91
2023-04-08T05:06:45.154Z,100528.06
2023-04-08T05:08:17.158Z,100528.91
2023-04-08T05:09:50.514Z,100529.78
2023-04-08T05:11:22.386Z,100537.69
2023-04-08T05:12:54.173Z,100525.22
2023-04-08T05:14:26.264Z,100543.03
2023-04-08T05:15:58.147Z,100538.56
2023-04-08T05:17:29.986Z,100535.03
2023-04-08T05:19:01.843Z,100537.69
2023-04-08T05:20:33.659Z,100543.03
2023-04-08T05:22:05.694Z,100539.44
2023-04-08T05:23:37.546Z,100546.50
2023-04-08T05:25:09.735Z,100542.97
2023-04-08T05:26:41.850Z,100534.00
2023-04-08T05:28:13.734Z,100536.59
2023-04-08T05:29:45.556Z,100540.13
2023-04-08T05:31:18.181Z,100537.47
2023-04-08T05:32:50.079Z,100536.59
2023-04-08T05:34:23.443Z,100540.94
2023-04-08T05:35:55.757Z,100542.63
2023-04-08T05:37:27.629Z,100544.34
2023-04-08T05:39:00.728Z,100540.66
2023-04-08T05:40:33.441Z,100544.19
2023-04-08T05:42:05.388Z,100548.56
2023-04-08T05:43:37.228Z,100542.31
2023-04-08T05:45:10.222Z,100546.53
2023-04-08T05:46:42.132Z,100545.56
2023-04-08T05:48:13.968Z,100543.69
2023-04-08T05:49:45.849Z,100548.94
2023-04-08T05:51:18.189Z,100549.72
2023-04-08T05:52:49.998Z,100548.72
2023-04-08T05:54:21.811Z,100550.41
2023-04-08T05:55:53.857Z,100549.47
2023-04-08T05:57:25.639Z,100556.47
2023-04-08T05:58:57.454Z,100550.19
2023-04-08T06:00:29.267Z,100560.78
2023-04-08T06:02:01.163Z,100553.63
2023-04-08T06:03:33.206Z,100558.91
2023-04-08T06:05:06.060Z,100567.66
2023-04-08T06:06:39.433Z,100576.47
2023-04-08T06:08:11.356Z,100566.66
2023-04-08T06:09:45.228Z,100566.59
2023-04-08T06:11:17.302Z,100570.97
2023-04-08T06:12:49.116Z,100569.06
2023-04-08T06:14:21.159Z,100570.81
2023-04-08T06:15:53.010Z,100575.19
2023-04-08T06:17:24.946Z,100578.72
2023-04-08T06:18:56.923Z,100585.72
2023-04-08T06:20:28.756Z,100585.69
2023-04-08T06:22:00.522Z,100583.88
2023-04-08T06:23:32.843Z,100581.09
2023-04-08T06:25:05.533Z,100576.53
2023-04-08T06:26:37.560Z,100579.03
2023-04-08T06:28:09.446Z,100570.00
2023-04-08T06:29:42.959Z,100576.88
2023-04-08T06:31:15.036Z,100574.81
2023-04-08T06:32:49.828Z,100575.47
2023-04-08T06:34:21.746Z,100581.56
2023-04-08T06:36:05.405Z,100585.78
2023-04-08T06:37:38.856Z,100591.69
2023-04-08T06:39:10.860Z,100585.25
2023-04-08T06:40:42.741Z,100590.50
2023-04-08T06:42:14.526Z,100600.97
2023-04-08T06:44:05.513Z,100604.38
2023-04-08T06:45:37.346Z,100603.25
2023-04-08T06:47:09.192Z,100605.00
2023-04-08T06:48:41.208Z,100600.34
2023-04-08T06:50:13.168Z,100604.66
2023-04-08T06:51:44.989Z,100601.81
2023-04-08T06:53:16.809Z,100601.53
2023-04-08T06:54:48.807Z,100602.22
2023-04-08T06:56:22.772Z,100601.06
2023-04-08T06:57:55.065Z,100605.31
2023-04-08T06:59:26.872Z,100606.00
2023-04-08T07:01:01.389Z,100614.59
2023-04-08T07:02:33.422Z,100605.53
2023-04-08T07:04:05.268Z,100618.56
2023-04-08T07:05:37.237Z,100611.31
2023-04-08T07:07:09.722Z,100614.69
2023-04-08T07:08:42.563Z,100627.78
2023-04-08T07:10:14.442Z,100626.66
2023-04-08T07:11:46.400Z,100628.22
2023-04-08T07:13:18.291Z,100624.56
2023-04-08T07:14:50.081Z,100626.09
2023-04-08T07:16:21.944Z,100625.94
2023-04-08T07:17:56.940Z,100625.75
2023-04-08T07:19:28.876Z,100626.34
2023-04-08T07:21:01.255Z,100634.19
2023-04-08T07:22:33.097Z,100637.63
2023-04-08T07:24:04.984Z,100638.31
2023-04-08T07:25:36.895Z,100637.38
2023-04-08T07:27:09.360Z,100638.03
2023-04-08T07:28:41.442Z,100635.25
2023-04-08T07:30:13.304Z,100640.53
2023-04-08T07:31:45.150Z,100643.97
2023-04-08T07:33:17.025Z,100647.44
2023-04-08T07:34:48.918Z,100634.81
2023-04-08T07:36:21.343Z,100649.81
2023-04-08T07:37:53.284Z,100648.81
2023-04-08T07:39:25.098Z,100646.06
2023-04-08T07:40:56.919Z,100655.69
2023-04-08T07:42:29.236Z,100645.88
2023-04-08T07:44:01.165Z,100652.94
2023-04-08T07:45:33.008Z,100661.84
2023-04-08T07:47:04.930Z,100658.13
2023-04-08T07:48:36.992Z,100666.16
2023-04-08T07:50:09.240Z,100662.63
2023-04-08T07:51:41.068Z,100667.97
2023-04-08T07:53:12.893Z,100676.88
2023-04-08T07:54:44.846Z,100672.38
2023-04-08T07:56:18.449Z,100674.09
2023-04-08T07:57:50.739Z,100675.06
2023-04-08T07:59:22.824Z,100676.78
2023-04-08T08:00:55.102Z,100679.19
2023-04-08T08:02:27.087Z,100676.41
2023-04-08T08:03:59.296Z,100677.84
2023-04-08T08:05:31.399Z,100680.16
2023-04-08T08:07:03.193Z,100676.22
2023-04-08T08:08:36.577Z,100682.84
2023-04-08T08:10:09.315Z,100684.09
2023-04-08T08:11:41.114Z,100680.00
2023-04-08T08:13:17.147Z,100682.75
2023-04-08T08:14:48.954Z,100686.66
2023-04-08T08:16:21.089Z,100688.78
2023-04-08T08:17:52.958Z,100684.53
2023-04-08T08:19:24.877Z,100684.81
2023-04-08T08:20:56.934Z,100692.16
2023-04-08T08:22:28.741Z,100687.16
2023-04-08T08:24:00.824Z,100692.00
2023-04-08T08:25:32.662Z,100699.63
2023-04-08T08:27:06.260Z,100698.44
2023-04-08T08:28:39.165Z,100699.00
2023-04-08T08:30:11.674Z,100705.03
2023-04-08T08:31:43.576Z,100696.75
2023-04-08T08:33:15.833Z,100699.44
2023-04-08T08:34:47.673Z,100694.63
2023-04-08T08:36:19.665Z,100705.94
2023-04-08T08:37:51.479Z,100700.16
2023-04-08T08:39:23.438Z,100699.72
2023-04-08T08:40:56.605Z,100700.16
2023-04-08T08:42:28.392Z,100701.38
2023-04-08T08:44:00.551Z,100706.91
2023-04-08T08:45:33.666Z,100713.56
2023-04-08T08:47:05.613Z,100708.63
2023-04-08T08:48:38.907Z,100713.81
2023-04-08T08:50:11.119Z,100713.69
2023-04-08T08:51:46.744Z,100717.88
2023-04-08T08:53:19.859Z,100721.13
2023-04-08T08:55:04.438Z,100720.13
2023-04-08T08:56:43.607Z,100730.59
2023-04-08T08:58:15.430Z,100715.31
2023-04-08T08:59:50.918Z,100725.88
2023-04-08T09:01:40.883Z,100722.41
2023-04-08T09:03:20.226Z,100724.88
2023-04-08T09:05:05.713Z,100729.53
2023-04-08T09:06:38.900Z,100738.97
2023-04-08T09:08:24.016Z,100735.84
2023-04-08T09:09:57.456Z,100729.31
2023-04-08T09:11:29.259Z,100730.06
2023-04-08T09:13:01.302Z,100734.47
2023-04-08T09:14:33.249Z,100731.69
2023-04-08T09:16:09.229Z,100740.41
2023-04-08T09:17:41.711Z,100736.63
2023-04-08T09:19:13.742Z,100739.00
2023-04-08T09:20:54.716Z,100745.16
2023-04-08T09:22:27.112Z,100743.00
2023-04-08T09:23:58.915Z,100754.31
2023-04-08T09:25:32.903Z,100746.78
2023-04-08T09:27:06.102Z,100754.53
2023-04-08T09:28:39.199Z,100752.38
2023-04-08T09:30:15.186Z,100751.06
2023-04-08T09:31:47.787Z,100748.16
2023-04-08T09:33:19.675Z,100750.53
2023-04-08T09:34:51.933Z,100757.50
2023-04-08T09:36:24.592Z,100762.88
2023-04-08T09:37:56.726Z,100753.00
2023-04-08T09:39:28.567Z,100760.97
2023-04-08T09:41:07.061Z,100759.25
2023-04-08T09:42:41.578Z,100760.19
2023-04-08T09:44:16.850Z,100760.97
2023-04-08T09:45:49.637Z,100762.66
2023-04-08T09:47:26.214Z,100761.50
2023-04-08T09:49:12.676Z,100763.97
2023-04-08T09:50:49.825Z,100767.31
2023-04-08T09:52:27.953Z,100756.19
2023-04-08T09:54:02.885Z,100761.34
2023-04-08T09:55:37.529Z,100757.56
2023-04-08T09:57:22.266Z,100761.75
2023-04-08T09:59:05.266Z,100766.69
2023-04-08T10:00:44.250Z,100764.06
2023-04-08T10:02:23.863Z,100760.84
2023-04-08T10:03:57.588Z,100769.66
2023-04-08T10:05:31.292Z,100767.59
2023-04-08T10:07:06.875Z,100771.88
2023-04-08T10:08:38.880Z,100765.53
2023-04-08T10:10:14.060Z,100776.19
2023-04-08T10:11:45.979Z,100766.28
2023-04-08T10:13:18.090Z,100763.47
2023-04-08T10:15:28.020Z,100770.19
2023-04-08T10:17:26.788Z,100765.00
2023-04-08T10:18:58.694Z,100774.59
2023-04-08T10:20:36.356Z,100777.50
2023-04-08T10:22:33.713Z,100774.31
2023-04-08T10:24:10.370Z,100775.03
2023-04-08T10:25:45.139Z,100766.22
2023-04-08T10:27:41.028Z,100765.59
2023-04-08T10:29:18.893Z,100767.16
2023-04-08T10:30:52.277Z,100767.16
2023-04-08T10:32:30.484Z,100773.53
2023-04-08T10:34:17.845Z,100771.84
2023-04-08T10:35:54.106Z,100771.59
2023-04-08T10:37:25.951Z,100770.63
2023-04-08T10:38:57.840Z,100761.69
2023-04-08T10:40:36.466Z,100768.69
2023-04-08T10:42:08.673Z,100772.00
2023-04-08T10:43:40.674Z,100768.25
2023-04-08T10:45:18.186Z,100770.81
2023-04-08T10:46:52.304Z,100770.56
2023-04-08T10:48:25.569Z,100765.31
2023-04-08T10:49:57.950Z,100769.59
2023-04-08T10:51:34.426Z,100771.34
2023-04-08T10:53:06.725Z,100770.47
2023-04-08T10:54:38.922Z,100774.13
2023-04-08T10:56:16.433Z,100767.25
2023-04-08T10:57:48.270Z,100772.88
2023-04-08T10:59:29.516Z,100767.69
2023-04-08T11:01:08.571Z,100777.72
2023-04-08T11:02:40.659Z,100775.59
2023-04-08T11:04:18.970Z,100779.38
2023-04-08T11:05:50.871Z,100780.72
2023-04-08T11:07:22.741Z,100772.09
2023-04-08T11:08:58.025Z,100780.41
2023-04-08T11:10:30.028Z,100775.44
2023-04-08T11:12:02.945Z,100771.78
2023-04-08T11:13:51.944Z,100780.75
2023-04-08T11:15:25.653Z,100780.63
2023-04-08T11:16:57.833Z,100779.00
2023-04-08T11:18:31.451Z,100780.97
2023-04-08T11:20:06.402Z,100777.50
2023-04-08T11:21:39.135Z,100774.94
2023-04-08T11:23:14.793Z,100780.66
2023-04-08T11:24:46.959Z,100781.63
2023-04-08T11:26:22.118Z,100783.78
2023-04-08T11:27:54.040Z,100784.84
2023-04-08T11:29:25.900Z,100794.25
2023-04-08T11:30:58.385Z,100787.38
2023-04-08T11:32:30.521Z,100795.66
2023-04-08T11:34:02.384Z,100794.25
2023-04-08T11:35:34.560Z,100799.09
2023-04-08T11:37:07.008Z,100800.28
2023-04-08T11:38:42.387Z,100806.00
2023-04-08T11:40:20.771Z,100805.34
2023-04-08T11:41:53.433Z,100801.06
2023-04-08T11:43:26.534Z,100797.81
2023-04-08T11:44:58.783Z,100799.72
2023-04-08T11:46:30.689Z,100799.72
2023-04-08T11:48:12.301Z,100803.50
2023-04-08T11:49:45.510Z,100808.78
2023-04-08T11:51:17.543Z,100803.78
2023-04-08T11:52:51.273Z,100806.69
2023-04-08T11:54:30.609Z,100801.72
2023-04-08T11:56:17.965Z,100811.84
2023-04-08T11:57:50.205Z,100807.56
2023-04-08T11:59:22.028Z,100812.25
2023-04-08T12:00:53.878Z,100814.28
2023-04-08T12:02:25.859Z,100810.66
2023-04-08T12:04:02.493Z,100812.78
2023-04-08T12:05:34.484Z,100817.41
2023-04-08T12:07:06.421Z,100817.50
2023-04-08T12:08:38.252Z,100815.56
2023-04-08T12:10:11.789Z,100819.63
2023-04-08T12:11:43.674Z,100818.94
2023-04-08T12:13:15.836Z,100826.28
2023-04-08T12:14:47.678Z,100817.34
2023-04-08T12:16:20.581Z,100816.97
2023-04-08T12:17:52.475Z,100819.88
2023-04-08T12:19:24.616Z,100822.09
2023-04-08T12:20:56.428Z,100818.75
2023-04-08T12:22:28.293Z,100818.19
2023-04-08T12:24:00.470Z,100826.56
2023-04-08T12:25:32.282Z,100820.41
2023-04-08T12:27:05.255Z,100826.69
2023-04-08T12:28:37.542Z,100831.06
2023-04-08T12:30:10.039Z,100838.16
2023-04-08T12:31:42.062Z,100836.34
2023-04-08T12:33:13.896Z,100835.59
2023-04-08T12:34:45.728Z,100840.84
2023-04-08T12:36:17.583Z,100840.13
2023-04-08T12:37:49.470Z,100838.16
2023-04-08T12:39:21.295Z,100837.31
2023-04-08T12:40:53.522Z,100836.44
2023-04-08T12:42:25.618Z,100838.94
2023-04-08T12:43:57.425Z,100834.09
2023-04-08T12:45:29.226Z,100837.56
2023-04-08T12:47:01.125Z,100839.88
2023-04-08T12:48:33.385Z,100836.84
2023-04-08T12:50:05.731Z,100838.28
2023-04-08T12:51:37.738Z,100841.34
2023-04-08T12:53:09.562Z,100841.47
2023-04-08T12:54:41.722Z,100837.72
2023-04-08T12:56:13.539Z,100840.88
2023-04-08T12:57:45.558Z,100845.63
2023-04-08T12:59:17.526Z,100837.88
2023-04-08T13:00:49.925Z,100846.31
2023-04-08T13:02:21.906Z,100837.38
2023-04-08T13:03:54.667Z,100839.75
2023-04-08T13:05:41.869Z,100839.53
2023-04-08T13:07:15.640Z,100839.25
2023-04-08T13:08:47.647Z,100840.88
2023-04-08T13:10:19.460Z,100851.34
2023-04-08T13:11:51.642Z,100850.34
2023-04-08T13:13:23.511Z,100856.47
2023-04-08T13:14:55.513Z,100859.41
2023-04-08T13:16:27.576Z,100851.63
2023-04-08T13:17:59.974Z,100858.09
2023-04-08T13:19:32.032Z,100862.03
2023-04-08T13:21:03.960Z,100861.41
2023-04-08T13:22:35.814Z,100854.38
2023-04-08T13:24:07.616Z,100861.69
2023-04-08T13:25:39.435Z,100864.69
2023-04-08T13:27:11.303Z,100865.00
2023-04-08T13:28:55.906Z,100862.31
2023-04-08T13:30:29.115Z,100866.19
2023-04-08T13:32:01.915Z,100866.38
2023-04-08T13:33:33.760Z,100872.16
2023-04-08T13:35:06.041Z,100858.91
2023-04-08T13:36:37.842Z,100863.56
2023-04-08T13:38:09.729Z,100865.47
2023-04-08T13:39:41.605Z,100865.59
2023-04-08T13:41:13.464Z,100856.75
2023-04-08T13:42:45.354Z,100869.34
2023-04-08T13:44:17.300Z,100857.03
2023-04-08T13:45:49.179Z,100861.16
2023-04-08T13:47:21.048Z,100853.28
2023-04-08T13:48:53.221Z,100868.69
2023-04-08T13:50:25.356Z,100867.81
2023-04-08T13:51:57.176Z,100855.72
2023-04-08T13:53:29.044Z,100862.84
2023-04-08T13:55:01.037Z,100853.91
2023-04-08T13:56:32.822Z,100856.78
2023-04-08T13:58:11.192Z,100858.09
2023-04-08T13:59:49.304Z,100864.31
2023-04-08T14:01:21.194Z,100859.72
2023-04-08T14:02:53.439Z,100854.41
2023-04-08T14:04:25.400Z,100860.00
2023-04-08T14:05:59.079Z,100857.41
2023-04-08T14:07:32.129Z,100857.41
2023-04-08T14:09:03.961Z,100866.44
2023-04-08T14:10:35.823Z,100867.53
2023-04-08T14:12:07.747Z,100866.34
2023-04-08T14:13:39.524Z,100860.00
2023-04-08T14:15:11.543Z,100862.28
2023-04-08T14:16:43.405Z,100861.97
2023-04-08T14:18:18.181Z,100866.09
2023-04-08T14:19:50.069Z,100868.28
2023-04-08T14:21:21.857Z,100858.84
2023-04-08T14:22:53.663Z,100862.91
2023-04-08T14:24:25.497Z,100869.63
2023-04-08T14:25:57.355Z,100873.72
2023-04-08T14:27:29.184Z,100873.31
2023-04-08T14:29:00.980Z,100875.72
2023-04-08T14:30:33.299Z,100878.00
2023-04-08T14:32:05.282Z,100876.41
2023-04-08T14:33:37.110Z,100877.16
2023-04-08T14:35:09.278Z,100873.06
2023-04-08T14:36:41.061Z,100882.00
2023-04-08T14:38:12.939Z,100883.16
2023-04-08T14:39:45.188Z,100879.72
2023-04-08T14:41:17.089Z,100883.38
2023-04-08T14:42:50.064Z,100878.50
2023-04-08T14:44:21.922Z,100887.81
2023-04-08T14:45:53.752Z,100882.88
2023-04-08T14:47:26.086Z,100878.84
2023-04-08T14:48:58.953Z,100884.44
2023-04-08T14:50:31.911Z,100879.78
2023-04-08T14:52:03.728Z,100877.41
2023-04-08T14:53:35.619Z,100875.88
2023-04-08T14:55:07.683Z,100876.84
2023-04-08T14:56:39.474Z,100876.31
2023-04-08T14:58:11.281Z,100880.13
2023-04-08T14:59:43.121Z,100890.16
2023-04-08T15:01:15.004Z,100873.63
2023-04-08T15:02:46.870Z,100883.94
2023-04-08T15:04:18.800Z,100885.28
2023-04-08T15:05:50.920Z,100883.78
2023-04-08T15:07:22.899Z,100879.66
2023-04-08T15:08:54.797Z,100884.44
2023-04-08T15:10:28.218Z,100885.78
2023-04-08T15:12:00.243Z,100889.66
2023-04-08T15:13:32.062Z,100892.72
2023-04-08T15:15:04.868Z,100898.59
2023-04-08T15:16:36.650Z,100893.56
2023-04-08T15:18:08.604Z,100893.75
2023-04-08T15:19:40.526Z,100892.31
2023-04-08T15:21:12.430Z,100895.09
2023-04-08T15:22:44.713Z,100897.28
2023-04-08T15:24:16.693Z,100898.53
2023-04-08T15:25:48.705Z,100907.72
2023-04-08T15:27:20.686Z,100900.81
2023-04-08T15:28:54.723Z,100900.31
2023-04-08T15:30:26.633Z,100902.44
2023-04-08T15:31:58.607Z,100894.63
2023-04-08T15:33:30.404Z,100904.69
2023-04-08T15:35:02.257Z,100902.38
2023-04-08T15:36:36.171Z,100911.41
2023-04-08T15:38:08.070Z,100908.03
2023-04-08T15:39:41.886Z,100911.69
2023-04-08T15:41:21.482Z,100906.22
2023-04-08T15:42:53.345Z,100915.97
2023-04-08T15:44:25.192Z,100916.34
2023-04-08T15:45:56.969Z,100919.63
2023-04-08T15:47:29.020Z,100919.81
2023-04-08T15:49:01.692Z,100918.16
2023-04-08T15:50:33.620Z,100916.56
2023-04-08T15:52:06.202Z,100913.25
2023-04-08T15:53:37.979Z,100915.16
2023-04-08T15:55:10.145Z,100913.63
2023-04-08T15:56:42.129Z,100914.94
2023-04-08T15:58:13.912Z,100915.00
2023-04-08T15:59:45.706Z,100911.41
2023-04-08T16:01:18.847Z,100911.47
2023-04-08T16:02:50.973Z,100917.88
2023-04-08T16:04:23.282Z,100916.94
2023-04-08T16:05:55.215Z,100918.84
2023-04-08T16:07:27.121Z,100923.16
2023-04-08T16:08:59.431Z,100921.34
2023-04-08T16:10:31.453Z,100919.50
2023-04-08T16:12:03.422Z,100923.00
2023-04-08T16:13:35.368Z,100926.69
2023-04-08T16:15:07.474Z,100940.97
2023-04-08T16:16:39.421Z,100940.28
2023-04-08T16:18:11.626Z,100933.38
2023-04-08T16:19:43.791Z,100940.75
2023-04-08T16:21:15.670Z,100944.34
2023-04-08T16:22:47.513Z,100940.91
2023-04-08T16:24:20.881Z,100948.00
2023-04-08T16:25:52.737Z,100945.25
2023-04-08T16:27:24.526Z,100948.78
2023-04-08T16:28:56.399Z,100939.94
2023-04-08T16:30:28.365Z,100950.84
2023-04-08T16:32:00.146Z,100951.03
2023-04-08T16:33:32.293Z,100951.88
2023-04-08T16:35:04.347Z,100945.66
2023-04-08T16:36:36.132Z,100952.94
2023-04-08T16:38:07.936Z,100954.84
2023-04-08T16:39:40.011Z,100959.34
2023-04-08T16:41:12.065Z,100961.91
2023-04-08T16:42:43.857Z,100956.84
2023-04-08T16:44:16.274Z,100955.19
2023-04-08T16:45:48.755Z,100958.81
2023-04-08T16:47:20.951Z,100959.00
2023-04-08T16:48:52.813Z,100963.50
2023-04-08T16:50:25.051Z,100966.19
2023-04-08T16:51:57.022Z,100962.81
2023-04-08T16:53:28.814Z,100971.94
2023-04-08T16:55:00.906Z,100963.91
2023-04-08T16:56:33.006Z,100973.78
2023-04-08T16:58:05.001Z,100978.44
2023-04-08T16:59:36.787Z,100980.41
2023-04-08T17:01:14.190Z,100972.34
2023-04-08T17:02:46.464Z,100974.16
2023-04-08T17:04:18.521Z,100985.06
2023-04-08T17:05:50.530Z,100976.22
2023-04-08T17:07:22.640Z,100984.44
2023-04-08T17:08:54.519Z,100985.56
2023-04-08T17:10:26.535Z,100987.44
2023-04-08T17:11:59.439Z,100990.31
2023-04-08T17:13:31.533Z,100990.38
2023-04-08T17:15:03.892Z,100991.41
2023-04-08T17:16:36.087Z,100999.53
2023-04-08T17:18:07.884Z,101004.03
2023-04-08T17:19:40.141Z,100997.88
2023-04-08T17:21:14.155Z,101006.09
2023-04-08T17:22:46.102Z,101004.38
2023-04-08T17:24:18.359Z,101007.97
2023-04-08T17:25:50.184Z,101001.84
2023-04-08T17:27:22.293Z,101012.56
2023-04-08T17:28:54.552Z,101010.81
2023-04-08T17:30:26.629Z,101009.09
2023-04-08T17:31:58.462Z,101008.34
2023-04-08T17:33:30.595Z,101019.09
2023-04-08T17:35:03.073Z,101015.56
2023-04-08T17:36:34.890Z,101019.19
2023-04-08T17:38:06.694Z,101016.53
2023-04-08T17:39:41.048Z,101019.28
2023-04-08T17:41:16.237Z,101017.63
2023-04-08T17:42:53.544Z,101017.69
2023-04-08T17:44:30.086Z,101018.66
2023-04-08T17:46:02.123Z,101016.03
2023-04-08T17:47:33.990Z,101022.34